createdAt,value
2019-02-23T00:02:01.158Z,102740.22
2019-02-23T00:04:29.988Z,102745.99
2019-02-23T00:06:59.006Z,102747.90
2019-02-23T00:09:27.888Z,102753.80
2019-02-23T00:11:56.924Z,102755.81
2019-02-23T00:14:25.794Z,102755.45
2019-02-23T00:16:54.778Z,102750.60
2019-02-23T00:19:25.043Z,102754.32
2019-02-23T00:21:54.357Z,102753.07
2019-02-23T00:24:23.380Z,102757.66
2019-02-23T00:26:52.245Z,102749.63
2019-02-23T00:29:21.360Z,102750.12
2019-02-23T00:31:50.256Z,102752.73
2019-02-23T00:34:19.341Z,102757.33
2019-02-23T00:36:48.277Z,102757.45
2019-02-23T00:39:17.120Z,102761.69
2019-02-23T00:41:46.035Z,102767.38
2019-02-23T00:44:14.879Z,102773.13
2019-02-23T00:46:43.936Z,102772.23
2019-02-23T00:49:12.873Z,102776.11
2019-02-23T00:51:41.785Z,102780.27
2019-02-23T00:54:10.793Z,102782.59
2019-02-23T00:56:39.689Z,102780.70
2019-02-23T00:59:08.661Z,102788.88
2019-02-23T01:01:37.620Z,102786.56
2019-02-23T01:04:06.620Z,102779.15
2019-02-23T01:06:35.712Z,102772.55
2019-02-23T01:09:05.151Z,102779.01
2019-02-23T01:11:34.039Z,102774.59
2019-02-23T01:14:03.468Z,102774.53
2019-02-23T01:16:32.547Z,102770.85
2019-02-23T01:19:01.320Z,102770.38
2019-02-23T01:21:30.338Z,102774.84
2019-02-23T01:23:59.263Z,102775.07
2019-02-23T01:26:28.453Z,102776.11
2019-02-23T01:28:57.389Z,102776.96
2019-02-23T01:31:26.319Z,102774.16
2019-02-23T01:33:55.405Z,102778.52
2019-02-23T01:36:24.357Z,102775.63
2019-02-23T01:38:53.353Z,102771.07
2019-02-23T01:41:22.444Z,102781.34
2019-02-23T01:43:51.309Z,102779.05
2019-02-23T01:46:20.289Z,102784.80
2019-02-23T01:48:49.442Z,102789.78
2019-02-23T01:51:19.586Z,102785.42
2019-02-23T01:53:48.667Z,102782.28
2019-02-23T01:56:17.591Z,102788.51
2019-02-23T01:58:46.568Z,102785.84
2019-02-23T02:01:15.567Z,102794.42
2019-02-23T02:03:44.585Z,102796.30
2019-02-23T02:06:13.621Z,102802.53
2019-02-23T02:08:42.813Z,102799.95
2019-02-23T02:11:12.022Z,102800.38
2019-02-23T02:13:41.235Z,102794.57
2019-02-23T02:16:10.311Z,102796.07
2019-02-23T02:18:39.539Z,102798.30
2019-02-23T02:21:08.376Z,102796.61
2019-02-23T02:23:37.180Z,102794.92
2019-02-23T02:26:06.132Z,102795.09
2019-02-23T02:28:35.024Z,102793.59
2019-02-23T02:31:04.011Z,102793.75
2019-02-23T02:33:33.042Z,102787.30
2019-02-23T02:36:02.045Z,102783.30
2019-02-23T02:38:30.989Z,102786.37
2019-02-23T02:40:59.752Z,102790.49
2019-02-23T02:43:28.692Z,102777.25
2019-02-23T02:45:57.594Z,102789.25
2019-02-23T02:48:26.482Z,102784.13
2019-02-23T02:50:55.568Z,102784.13
2019-02-23T02:53:24.382Z,102783.03
2019-02-23T02:55:53.158Z,102790.79
2019-02-23T02:58:22.083Z,102780.77
2019-02-23T03:00:50.970Z,102774.39
2019-02-23T03:03:19.830Z,102766.72
2019-02-23T03:05:48.642Z,102765.14
2019-02-23T03:08:17.755Z,102766.07
2019-02-23T03:10:46.705Z,102775.88
2019-02-23T03:13:15.771Z,102775.04
2019-02-23T03:15:44.556Z,102775.92
2019-02-23T03:18:13.492Z,102766.44
2019-02-23T03:20:42.373Z,102776.23
2019-02-23T03:23:11.196Z,102783.77
2019-02-23T03:25:40.103Z,102776.50
2019-02-23T03:28:08.964Z,102774.99
2019-02-23T03:30:37.842Z,102769.26
2019-02-23T03:33:06.841Z,102760.06
2019-02-23T03:35:35.761Z,102758.25
2019-02-23T03:38:05.435Z,102756.92
2019-02-23T03:40:34.733Z,102756.20
2019-02-23T03:43:03.779Z,102761.44
2019-02-23T03:45:32.721Z,102757.76
2019-02-23T03:48:01.650Z,102758.03
2019-02-23T03:50:30.491Z,102758.00
2019-02-23T03:52:59.549Z,102756.59
2019-02-23T03:55:28.547Z,102751.77
2019-02-23T03:57:57.463Z,102752.13
2019-02-23T04:00:26.459Z,102743.12
2019-02-23T04:02:55.365Z,102745.52
2019-02-23T04:05:24.275Z,102744.41
2019-02-23T04:07:53.257Z,102734.16
2019-02-23T04:10:24.880Z,102734.56
2019-02-23T04:12:53.806Z,102742.55
2019-02-23T04:15:22.720Z,102744.65
2019-02-23T04:17:51.642Z,102742.26
2019-02-23T04:20:20.682Z,102752.72
2019-02-23T04:22:49.722Z,102761.83
2019-02-23T04:25:18.705Z,102760.41
2019-02-23T04:27:47.644Z,102752.82
2019-02-23T04:30:16.599Z,102750.86
2019-02-23T04:32:45.659Z,102757.03
2019-02-23T04:35:14.851Z,102751.92
2019-02-23T04:37:43.881Z,102756.27
2019-02-23T04:40:12.876Z,102746.84
2019-02-23T04:42:41.986Z,102758.41
2019-02-23T04:45:12.168Z,102750.25
2019-02-23T04:47:41.209Z,102757.62
2019-02-23T04:50:10.348Z,102767.70
2019-02-23T04:52:39.394Z,102764.47
2019-02-23T04:55:08.430Z,102763.53
2019-02-23T04:57:37.496Z,102768.63
2019-02-23T05:00:07.679Z,102773.57
2019-02-23T05:02:38.252Z,102771.87
2019-02-23T05:05:08.271Z,102769.59
2019-02-23T05:07:37.307Z,102776.97
2019-02-23T05:10:06.649Z,102778.13
2019-02-23T05:12:35.684Z,102759.36
2019-02-23T05:15:06.764Z,102763.44
2019-02-23T05:17:35.831Z,102767.14
2019-02-23T05:20:05.233Z,102765.98
2019-02-23T05:22:34.354Z,102764.07
2019-02-23T05:25:06.354Z,102765.77
2019-02-23T05:27:35.645Z,102770.04
2019-02-23T05:30:06.478Z,102766.72
2019-02-23T05:32:36.803Z,102770.69
2019-02-23T05:35:06.464Z,102772.86
2019-02-23T05:37:35.411Z,102768.03
2019-02-23T05:40:06.053Z,102774.66
2019-02-23T05:42:38.183Z,102776.17
2019-02-23T05:45:07.386Z,102779.37
2019-02-23T05:47:37.614Z,102784.86
2019-02-23T05:50:08.807Z,102784.66
2019-02-23T05:52:37.642Z,102781.03
2019-02-23T05:55:10.054Z,102742.78
2019-02-23T05:57:40.600Z,102781.63
2019-02-23T06:00:10.822Z,102783.66
2019-02-23T06:02:44.778Z,102792.11
2019-02-23T06:05:12.397Z,102781.00
2019-02-23T06:07:43.873Z,102774.66
2019-02-23T06:10:14.564Z,102773.23
2019-02-23T06:12:45.446Z,102772.48
2019-02-23T06:15:15.770Z,102766.34
2019-02-23T06:17:44.826Z,102766.34
2019-02-23T06:20:15.401Z,102767.09
2019-02-23T06:22:46.941Z,102767.83
2019-02-23T06:25:18.313Z,102766.95
2019-02-23T06:27:48.525Z,102761.87
2019-02-23T06:30:18.514Z,102767.52
2019-02-23T06:32:48.753Z,102762.41
2019-02-23T06:35:17.715Z,102774.54
2019-02-23T06:37:46.731Z,102776.63
2019-02-23T06:40:15.791Z,102782.67
2019-02-23T06:42:44.730Z,102788.85
2019-02-23T06:45:13.770Z,102788.87
2019-02-23T06:47:44.389Z,102780.58
2019-02-23T06:50:13.509Z,102788.21
2019-02-23T06:52:42.581Z,102796.16
2019-02-23T06:55:11.619Z,102802.20
2019-02-23T06:57:42.303Z,102810.00
2019-02-23T07:00:13.855Z,102814.56
2019-02-23T07:02:42.945Z,102816.45
2019-02-23T07:05:12.021Z,102821.19
2019-02-23T07:07:41.104Z,102827.73
2019-02-23T07:10:11.493Z,102833.31
2019-02-23T07:12:42.070Z,102813.64
2019-02-23T07:15:11.767Z,102844.28
2019-02-23T07:17:40.867Z,102833.86
2019-02-23T07:20:11.080Z,102838.14
2019-02-23T07:22:40.238Z,102841.75
2019-02-23T07:25:09.442Z,102841.88
2019-02-23T07:27:38.471Z,102852.75
2019-02-23T07:30:10.136Z,102860.50
2019-02-23T07:32:41.248Z,102863.38
2019-02-23T07:35:15.273Z,102860.72
2019-02-23T07:37:49.335Z,102861.95
2019-02-23T07:40:18.423Z,102861.10
2019-02-23T07:42:48.871Z,102860.36
2019-02-23T07:45:18.181Z,102868.52
2019-02-23T07:47:48.059Z,102870.77
2019-02-23T07:50:17.098Z,102867.85
2019-02-23T07:52:48.226Z,102879.25
2019-02-23T07:55:17.247Z,102866.63
2019-02-23T07:57:46.330Z,102880.09
2019-02-23T08:00:16.849Z,102863.38
2019-02-23T08:02:45.990Z,102861.89
2019-02-23T08:05:15.157Z,102857.22
2019-02-23T08:07:44.237Z,102858.55
2019-02-23T08:10:14.435Z,102856.67
2019-02-23T08:12:43.483Z,102859.02
2019-02-23T08:15:13.885Z,102848.59
2019-02-23T08:17:42.823Z,102853.05
2019-02-23T08:20:13.410Z,102859.22
2019-02-23T08:22:43.697Z,102859.84
2019-02-23T08:25:12.944Z,102847.45
2019-02-23T08:27:42.726Z,102840.20
2019-02-23T08:30:15.560Z,102848.17
2019-02-23T08:32:44.657Z,102842.70
2019-02-23T08:35:13.706Z,102844.77
2019-02-23T08:37:42.921Z,102841.45
2019-02-23T08:40:12.411Z,102832.96
2019-02-23T08:42:41.455Z,102825.34
2019-02-23T08:45:10.672Z,102819.89
2019-02-23T08:47:42.362Z,102818.75
2019-02-23T08:50:14.253Z,102823.16
2019-02-23T08:52:49.335Z,102824.33
2019-02-23T08:55:14.181Z,102831.63
2019-02-23T08:57:44.513Z,102822.69
2019-02-23T09:00:15.262Z,102824.00
2019-02-23T09:02:48.243Z,102825.73
2019-02-23T09:05:18.679Z,102831.31
2019-02-23T09:07:50.810Z,102824.88
2019-02-23T09:10:22.939Z,102836.25
2019-02-23T09:12:52.101Z,102841.29
2019-02-23T09:15:22.977Z,102834.43
2019-02-23T09:17:52.234Z,102825.91
2019-02-23T09:20:29.098Z,102836.03
2019-02-23T09:23:00.076Z,102837.84
2019-02-23T09:25:24.341Z,102846.11
2019-02-23T09:27:54.789Z,102857.34
2019-02-23T09:30:26.969Z,102858.56
2019-02-23T09:32:56.286Z,102858.56
2019-02-23T09:35:29.122Z,102859.11
2019-02-23T09:37:58.397Z,102857.47
2019-02-23T09:40:27.570Z,102858.95
2019-02-23T09:42:56.851Z,102854.33
2019-02-23T09:45:26.216Z,102847.53
2019-02-23T09:47:55.486Z,102853.41
2019-02-23T09:50:24.681Z,102841.91
2019-02-23T09:52:53.845Z,102843.49
2019-02-23T09:55:22.945Z,102841.14
2019-02-23T09:57:52.511Z,102757.61
2019-02-23T10:00:21.615Z,102843.44
2019-02-23T10:02:50.902Z,102848.43
2019-02-23T10:05:21.609Z,102851.46
2019-02-23T10:07:50.688Z,102839.91
2019-02-23T10:10:19.717Z,102832.53
2019-02-23T10:12:48.881Z,102834.00
2019-02-23T10:15:18.051Z,102826.69
2019-02-23T10:17:48.445Z,102823.86
2019-02-23T10:20:17.569Z,102822.28
2019-02-23T10:22:46.734Z,102818.98
2019-02-23T10:25:18.055Z,102820.03
2019-02-23T10:27:48.261Z,102815.47
2019-02-23T10:30:18.829Z,102822.09
2019-02-23T10:32:47.811Z,102815.66
2019-02-23T10:35:16.739Z,102811.18
2019-02-23T10:37:45.550Z,102806.46
2019-02-23T10:40:14.748Z,102797.81
2019-02-23T10:42:43.766Z,102799.51
2019-02-23T10:45:13.105Z,102788.20
2019-02-23T10:47:42.023Z,102798.41
2019-02-23T10:50:11.098Z,102799.87
2019-02-23T10:52:40.074Z,102807.00
2019-02-23T10:55:10.188Z,102809.19
2019-02-23T10:57:39.215Z,102811.12
2019-02-23T11:00:14.785Z,102815.66
2019-02-23T11:02:43.748Z,102817.41
2019-02-23T11:05:12.916Z,102806.87
2019-02-23T11:07:41.981Z,102812.44
2019-02-23T11:10:11.297Z,102820.09
2019-02-23T11:12:40.352Z,102821.80
2019-02-23T11:15:10.512Z,102831.64
2019-02-23T11:17:39.572Z,102822.53
2019-02-23T11:20:10.103Z,102837.56
2019-02-23T11:22:39.285Z,102838.41
2019-02-23T11:25:08.803Z,102833.09
2019-02-23T11:27:38.737Z,102829.93
2019-02-23T11:30:08.972Z,102834.06
2019-02-23T11:32:38.026Z,102837.11
2019-02-23T11:35:07.770Z,102836.75
2019-02-23T11:37:36.794Z,102835.61
2019-02-23T11:40:06.564Z,102832.09
2019-02-23T11:42:35.500Z,102819.84
2019-02-23T11:45:04.732Z,102822.24
2019-02-23T11:47:33.768Z,102808.97
2019-02-23T11:50:02.727Z,102804.16
2019-02-23T11:52:31.630Z,102809.53
2019-02-23T11:55:00.571Z,102808.19
2019-02-23T11:57:29.629Z,102810.70
2019-02-23T11:59:58.468Z,102809.36
2019-02-23T12:02:27.379Z,102803.20
2019-02-23T12:04:56.369Z,102794.99
2019-02-23T12:07:25.354Z,102796.16
2019-02-23T12:09:54.246Z,102806.76
2019-02-23T12:12:23.233Z,102795.67
2019-02-23T12:14:52.148Z,102792.31
2019-02-23T12:17:21.246Z,102770.56
2019-02-23T12:19:50.062Z,102768.65
2019-02-23T12:22:19.035Z,102765.65
2019-02-23T12:24:48.100Z,102764.91
2019-02-23T12:27:17.011Z,102770.09
2019-02-23T12:29:45.986Z,102767.48
2019-02-23T12:32:15.019Z,102762.66
2019-02-23T12:34:43.880Z,102756.02
2019-02-23T12:37:12.915Z,102758.16
2019-02-23T12:39:41.850Z,102751.84
2019-02-23T12:42:10.764Z,102750.30
2019-02-23T12:44:39.576Z,102743.75
2019-02-23T12:47:08.482Z,102734.37
2019-02-23T12:49:37.428Z,102727.43
2019-02-23T12:52:06.431Z,102719.50
2019-02-23T12:54:35.425Z,102721.47
2019-02-23T12:57:04.407Z,102712.84
2019-02-23T12:59:33.466Z,102712.30
2019-02-23T13:02:02.339Z,102708.23
2019-02-23T13:04:31.541Z,102697.12
2019-02-23T13:07:00.302Z,102697.66
2019-02-23T13:09:32.034Z,102699.75
2019-02-23T13:12:14.371Z,102693.23
2019-02-23T13:15:00.667Z,102693.05
2019-02-23T13:17:58.696Z,102694.02
2019-02-23T13:21:11.968Z,102687.31
2019-02-23T13:24:07.101Z,102683.23
2019-02-23T13:27:16.616Z,102680.20
2019-02-23T13:30:21.784Z,102669.05
2019-02-23T13:33:33.062Z,102668.98
2019-02-23T13:36:51.914Z,102665.50
2019-02-23T13:39:33.138Z,102661.14
2019-02-23T13:42:31.995Z,102653.36
2019-02-23T13:45:25.125Z,102653.44
2019-02-23T13:48:31.183Z,102650.91
2019-02-23T13:51:32.941Z,102656.17
2019-02-23T13:54:21.110Z,102656.04
2019-02-23T13:57:11.241Z,102649.33
2019-02-23T14:00:21.625Z,102640.89
2019-02-23T14:03:25.753Z,102652.52
2019-02-23T14:06:14.433Z,102646.60
2019-02-23T14:09:45.955Z,102644.20
2019-02-23T14:12:41.400Z,102650.47
2019-02-23T14:15:40.429Z,102637.55
2019-02-23T14:18:36.208Z,102638.64
2019-02-23T14:21:34.454Z,102640.95
2019-02-23T14:24:38.421Z,102633.91
2019-02-23T14:27:38.652Z,102640.89
2019-02-23T14:31:04.067Z,102641.30
2019-02-23T14:34:00.994Z,102631.15
2019-02-23T14:36:42.583Z,102633.57
2019-02-23T14:39:42.907Z,102643.70
2019-02-23T14:42:20.586Z,102638.81
2019-02-23T14:45:25.663Z,102637.92
2019-02-23T14:48:32.843Z,102639.29
2019-02-23T14:51:23.899Z,102641.31
2019-02-23T14:54:04.712Z,102646.63
2019-02-23T14:57:17.237Z,102628.19
2019-02-23T15:00:07.693Z,102634.31
2019-02-23T15:03:19.514Z,102630.96
2019-02-23T15:06:10.744Z,102632.16
2019-02-23T15:08:52.669Z,102623.09
2019-02-23T15:12:07.114Z,102626.89
2019-02-23T15:15:25.047Z,102631.02
2019-02-23T15:18:29.828Z,102625.72
2019-02-23T15:21:25.997Z,102613.23
2019-02-23T15:24:31.257Z,102619.84
2019-02-23T15:27:37.721Z,102612.45
2019-02-23T15:30:50.888Z,102618.40
2019-02-23T15:34:15.172Z,102609.47
2019-02-23T15:37:08.921Z,102616.41
2019-02-23T15:40:13.644Z,102615.91
2019-02-23T15:43:25.708Z,102610.02
2019-02-23T15:46:05.713Z,102608.06
2019-02-23T15:49:17.515Z,102605.39
2019-02-23T15:51:46.444Z,102609.65
2019-02-23T15:54:15.476Z,102620.44
2019-02-23T15:56:44.374Z,102613.47
2019-02-23T15:59:13.297Z,102622.24
2019-02-23T16:01:42.263Z,102618.38
2019-02-23T16:04:11.207Z,102618.27
2019-02-23T16:06:40.168Z,102613.62
2019-02-23T16:09:09.163Z,102613.81
2019-02-23T16:11:38.142Z,102613.81
2019-02-23T16:14:07.177Z,102612.28
2019-02-23T16:16:36.147Z,102573.09
2019-02-23T16:19:05.422Z,102618.50
2019-02-23T16:21:34.290Z,102619.30
2019-02-23T16:24:03.250Z,102623.70
2019-02-23T16:26:32.306Z,102627.13
2019-02-23T16:29:01.187Z,102620.43
2019-02-23T16:31:30.205Z,102624.16
2019-02-23T16:33:59.108Z,102628.52
2019-02-23T16:36:28.077Z,102633.15
2019-02-23T16:38:57.142Z,102636.40
2019-02-23T16:41:26.104Z,102628.38
2019-02-23T16:43:54.943Z,102637.11
2019-02-23T16:46:23.937Z,102633.52
2019-02-23T16:48:52.818Z,102644.56
2019-02-23T16:51:21.826Z,102644.83
2019-02-23T16:53:50.662Z,102645.68
2019-02-23T16:56:19.656Z,102638.31
2019-02-23T16:58:48.771Z,102650.23
2019-02-23T17:01:17.669Z,102655.62
2019-02-23T17:03:46.673Z,102658.84
2019-02-23T17:06:15.569Z,102652.19
2019-02-23T17:08:44.829Z,102656.91
2019-02-23T17:11:13.852Z,102657.69
2019-02-23T17:13:42.837Z,102662.06
2019-02-23T17:16:11.696Z,102661.86
2019-02-23T17:18:40.679Z,102663.08
2019-02-23T17:21:09.930Z,102664.55
2019-02-23T17:23:40.160Z,102663.49
2019-02-23T17:26:09.277Z,102668.28
2019-02-23T17:28:38.233Z,102656.63
2019-02-23T17:31:07.037Z,102668.28
2019-02-23T17:33:36.470Z,102680.20
2019-02-23T17:36:05.508Z,102669.52
2019-02-23T17:38:35.642Z,102674.98
2019-02-23T17:41:05.017Z,102676.33
2019-02-23T17:43:33.819Z,102664.69
2019-02-23T17:46:02.730Z,102668.80
2019-02-23T17:51:00.573Z,102608.97
2019-02-23T17:53:29.383Z,102671.97
2019-02-23T17:55:58.307Z,102665.16
2019-02-23T17:58:27.311Z,102669.02
2019-02-23T18:00:57.070Z,102668.66
2019-02-23T18:03:25.968Z,102669.86
2019-02-23T18:05:54.851Z,102667.66
2019-02-23T18:08:23.734Z,102670.56
2019-02-23T18:10:52.774Z,102674.08
2019-02-23T18:13:21.634Z,102676.37
2019-02-23T18:15:50.551Z,102675.48
2019-02-23T18:18:19.546Z,102679.59
2019-02-23T18:20:48.539Z,102678.27
2019-02-23T18:23:17.415Z,102670.64
2019-02-23T18:25:46.320Z,102684.20
2019-02-23T18:28:15.164Z,102682.16
2019-02-23T18:30:44.140Z,102681.20
2019-02-23T18:33:13.091Z,102683.87
2019-02-23T18:35:41.888Z,102682.20
2019-02-23T18:38:10.802Z,102680.86
2019-02-23T18:40:39.576Z,102688.24
2019-02-23T18:43:08.570Z,102689.20
2019-02-23T18:45:37.561Z,102689.20
2019-02-23T18:48:06.356Z,102687.98
2019-02-23T18:50:35.327Z,102690.91
2019-02-23T18:53:04.283Z,102692.94
2019-02-23T18:55:40.894Z,102687.48
2019-02-23T18:58:03.734Z,102691.13
2019-02-23T19:00:32.759Z,102697.78
2019-02-23T19:03:01.611Z,102705.20
2019-02-23T19:05:30.658Z,102699.49
2019-02-23T19:07:59.503Z,102699.00
2019-02-23T19:10:28.338Z,102700.46
2019-02-23T19:12:57.292Z,102692.80
2019-02-23T19:15:26.177Z,102694.81
2019-02-23T19:17:55.259Z,102701.97
2019-02-23T19:20:24.164Z,102695.55
2019-02-23T19:22:53.143Z,102702.79
2019-02-23T19:25:22.048Z,102690.67
2019-02-23T19:27:51.107Z,102690.80
2019-02-23T19:30:20.589Z,102693.05
2019-02-23T19:32:49.660Z,102689.87
2019-02-23T19:35:18.760Z,102688.90
2019-02-23T19:37:47.811Z,102699.52
2019-02-23T19:40:16.882Z,102696.45
2019-02-23T19:42:45.826Z,102695.24
2019-02-23T19:45:14.862Z,102696.66
2019-02-23T19:47:43.694Z,102694.05
2019-02-23T19:50:19.313Z,102696.42
2019-02-23T19:52:48.305Z,102694.08
2019-02-23T19:55:17.543Z,102695.55
2019-02-23T19:57:46.572Z,102692.82
2019-02-23T20:00:15.625Z,102690.23
2019-02-23T20:02:44.526Z,102694.66
2019-02-23T20:05:13.571Z,102685.84
2019-02-23T20:07:42.440Z,102693.59
2019-02-23T20:10:11.555Z,102689.42
2019-02-23T20:12:40.760Z,102686.58
2019-02-23T20:15:10.368Z,102685.02
2019-02-23T20:17:49.062Z,102677.69
2019-02-23T20:20:18.013Z,102669.77
2019-02-23T20:22:46.986Z,102667.48
2019-02-23T20:25:15.943Z,102659.02
2019-02-23T20:27:44.852Z,102669.88
2019-02-23T20:30:13.843Z,102670.89
2019-02-23T20:32:42.787Z,102672.03
2019-02-23T20:35:11.858Z,102667.77
2019-02-23T20:37:40.852Z,102669.88
2019-02-23T20:40:09.868Z,102670.76
2019-02-23T20:42:38.763Z,102667.11
2019-02-23T20:45:07.720Z,102669.85
2019-02-23T20:47:36.745Z,102672.52
2019-02-23T20:50:06.505Z,102671.47
2019-02-23T20:52:35.399Z,102669.85
2019-02-23T20:55:04.647Z,102675.94
2019-02-23T20:57:33.658Z,102675.08
2019-02-23T21:00:02.763Z,102684.73
2019-02-23T21:02:31.809Z,102678.53
2019-02-23T21:05:00.823Z,102674.55
2019-02-23T21:07:29.665Z,102671.50
2019-02-23T21:09:58.585Z,102665.06
2019-02-23T21:12:28.555Z,102668.61
2019-02-23T21:14:57.528Z,102669.53
2019-02-23T21:17:26.378Z,102666.69
2019-02-23T21:19:55.315Z,102674.80
2019-02-23T21:22:24.219Z,102666.75
2019-02-23T21:24:53.157Z,102675.52
2019-02-23T21:27:22.053Z,102675.52
2019-02-23T21:29:51.056Z,102673.98
2019-02-23T21:32:20.071Z,102681.54
2019-02-23T21:34:49.143Z,102674.69
2019-02-23T21:37:17.979Z,102675.66
2019-02-23T21:39:46.940Z,102676.46
2019-02-23T21:42:15.948Z,102671.48
2019-02-23T21:44:44.919Z,102667.32
2019-02-23T21:47:13.826Z,102669.72
2019-02-23T21:49:42.830Z,102678.27
2019-02-23T21:52:11.856Z,102678.45
2019-02-23T21:54:40.989Z,102679.89
2019-02-23T21:57:09.863Z,102675.73
2019-02-23T21:59:38.788Z,102683.84
2019-02-23T22:02:07.691Z,102688.34
2019-02-23T22:04:36.792Z,102685.45
2019-02-23T22:07:05.840Z,102678.16
2019-02-23T22:09:34.877Z,102675.70
2019-02-23T22:12:03.759Z,102680.82
2019-02-23T22:14:32.583Z,102676.61
2019-02-23T22:17:01.461Z,102681.34
2019-02-23T22:19:31.703Z,102678.29
2019-02-23T22:22:00.661Z,102671.78
2019-02-23T22:24:29.604Z,102673.47
2019-02-23T22:26:58.505Z,102667.72
2019-02-23T22:29:27.415Z,102667.75
2019-02-23T22:31:56.328Z,102674.66
2019-02-23T22:34:25.298Z,102681.55
2019-02-23T22:36:54.215Z,102680.55
2019-02-23T22:39:23.104Z,102680.91
2019-02-23T22:41:52.062Z,102677.90
2019-02-23T22:44:20.991Z,102691.66
2019-02-23T22:46:49.915Z,102687.49
2019-02-23T22:49:18.797Z,102687.78
2019-02-23T22:51:47.681Z,102686.08
2019-02-23T22:54:16.830Z,102692.28
2019-02-23T22:56:46.036Z,102692.36
2019-02-23T22:59:15.041Z,102685.58
2019-02-23T23:01:44.055Z,102684.58
2019-02-23T23:04:12.921Z,102693.42
2019-02-23T23:06:41.931Z,102687.86
2019-02-23T23:09:14.826Z,102692.23
2019-02-23T23:11:43.678Z,102694.31
2019-02-23T23:14:12.668Z,102619.81
2019-02-23T23:16:41.459Z,102686.13
2019-02-23T23:19:10.371Z,102674.72
2019-02-23T23:21:39.349Z,102674.42
2019-02-23T23:24:08.256Z,102680.98
2019-02-23T23:26:37.206Z,102681.80
2019-02-23T23:29:06.197Z,102681.33
2019-02-23T23:31:35.264Z,102680.48
2019-02-23T23:34:04.117Z,102682.62
2019-02-23T23:36:33.272Z,102691.28
2019-02-23T23:39:02.067Z,102689.59
2019-02-23T23:41:31.037Z,102696.86
2019-02-23T23:43:59.849Z,102695.34
2019-02-23T23:46:28.967Z,102690.59
2019-02-23T23:48:57.744Z,102700.81
2019-02-23T23:51:26.566Z,102690.55
2019-02-23T23:53:55.410Z,102684.58
2019-02-23T23:56:24.404Z,102684.88
2019-02-23T23:58:53.343Z,102685.75
